createdAt,value
2023-03-16T00:00:06.087Z,3.80
2023-03-16T00:02:33.301Z,3.90
2023-03-16T00:05:00.494Z,4.23
2023-03-16T00:07:27.802Z,4.10
2023-03-16T00:09:55.010Z,3.60
2023-03-16T00:12:23.672Z,3.60
2023-03-16T00:14:51.352Z,4.27
2023-03-16T00:17:19.455Z,4.30
2023-03-16T00:19:53.529Z,3.73
2023-03-16T00:22:21.450Z,4.30
2023-03-16T00:24:48.674Z,3.53
2023-03-16T00:27:16.029Z,3.60
2023-03-16T00:30:14.868Z,3.97
2023-03-16T00:32:58.877Z,2.80
2023-03-16T00:35:26.142Z,3.87
2023-03-16T00:37:53.436Z,4.10
2023-03-16T00:40:20.667Z,4.07
2023-03-16T00:42:47.861Z,5.17
2023-03-16T00:45:15.225Z,4.03
2023-03-16T00:47:48.332Z,4.10
2023-03-16T00:50:17.000Z,4.60
2023-03-16T00:52:44.225Z,3.93
2023-03-16T00:55:11.516Z,3.50
2023-03-16T00:57:48.033Z,3.80
2023-03-16T01:00:26.485Z,3.67
2023-03-16T01:03:09.334Z,4.40
2023-03-16T01:05:41.892Z,3.97
2023-03-16T01:08:09.566Z,4.03
2023-03-16T01:10:37.235Z,4.37
2023-03-16T01:13:04.605Z,4.20
2023-03-16T01:15:31.919Z,3.60
2023-03-16T01:20:29.163Z,3.90
2023-03-16T01:22:57.949Z,4.50
2023-03-16T01:25:25.344Z,4.00
2023-03-16T01:27:52.627Z,4.40
2023-03-16T01:30:20.071Z,4.80
2023-03-16T01:32:56.358Z,4.40
2023-03-16T01:35:49.032Z,3.93
2023-03-16T01:38:23.525Z,4.63
2023-03-16T01:40:50.841Z,4.83
2023-03-16T01:43:18.980Z,5.50
2023-03-16T01:46:05.488Z,3.87
2023-03-16T01:48:47.890Z,5.03
2023-03-16T01:51:21.779Z,3.57
2023-03-16T01:53:51.939Z,4.57
2023-03-16T01:56:21.019Z,5.03
2023-03-16T01:58:48.496Z,4.97
2023-03-16T02:01:15.809Z,4.20
2023-03-16T02:03:44.176Z,4.70
2023-03-16T02:06:21.403Z,5.07
2023-03-16T02:08:55.033Z,5.30
2023-03-16T02:11:23.594Z,4.80
2023-03-16T02:14:35.426Z,4.77
2023-03-16T02:17:08.902Z,4.97
2023-03-16T02:19:38.807Z,4.20
2023-03-16T02:22:08.310Z,4.43
2023-03-16T02:24:37.477Z,4.37
2023-03-16T02:27:06.314Z,3.50
2023-03-16T02:29:57.632Z,4.53
2023-03-16T02:32:28.811Z,4.80
2023-03-16T02:34:56.507Z,4.97
2023-03-16T02:37:24.570Z,4.20
2023-03-16T02:39:51.864Z,4.80
2023-03-16T02:42:21.952Z,4.53
2023-03-16T02:44:52.924Z,4.00
2023-03-16T02:47:44.458Z,4.90
2023-03-16T02:50:34.704Z,3.70
2023-03-16T02:53:07.190Z,4.87
2023-03-16T02:55:36.184Z,4.20
2023-03-16T02:58:03.427Z,4.40
2023-03-16T03:00:30.804Z,3.70
2023-03-16T03:02:59.512Z,4.20
2023-03-16T03:05:26.842Z,5.03
2023-03-16T03:07:54.229Z,4.23
2023-03-16T03:10:22.017Z,5.40
2023-03-16T03:12:49.627Z,4.27
2023-03-16T03:15:17.421Z,3.20
2023-03-16T03:21:51.021Z,3.93
2023-03-16T03:24:18.343Z,4.80
2023-03-16T03:26:47.459Z,4.63
2023-03-16T03:29:20.288Z,4.73
2023-03-16T03:31:47.630Z,4.73
2023-03-16T03:34:14.958Z,4.80
2023-03-16T03:36:48.083Z,4.47
2023-03-16T03:39:16.844Z,4.30
2023-03-16T03:41:44.408Z,4.90
2023-03-16T03:44:12.527Z,3.70
2023-03-16T03:50:30.614Z,4.47
2023-03-16T03:53:21.374Z,4.73
2023-03-16T03:56:13.455Z,4.70
2023-03-16T03:58:40.652Z,4.87
2023-03-16T04:01:08.245Z,4.10
2023-03-16T04:03:36.157Z,4.20
2023-03-16T04:06:22.825Z,4.77
2023-03-16T04:08:50.169Z,4.70
2023-03-16T04:11:22.273Z,4.37
2023-03-16T04:13:51.929Z,3.87
2023-03-16T04:16:19.191Z,4.17
2023-03-16T04:19:10.766Z,4.63
2023-03-16T04:21:50.342Z,4.00
2023-03-16T04:24:19.661Z,4.10
2023-03-16T04:26:48.554Z,3.60
2023-03-16T04:29:16.187Z,4.33
2023-03-16T04:31:43.506Z,3.70
2023-03-16T04:34:11.368Z,3.80
2023-03-16T04:36:39.494Z,3.60
2023-03-16T04:39:07.247Z,3.93
2023-03-16T04:41:34.579Z,3.67
2023-03-16T04:44:18.415Z,4.00
2023-03-16T04:46:45.839Z,3.53
2023-03-16T04:49:13.756Z,3.90
2023-03-16T04:51:44.162Z,3.70
2023-03-16T04:54:15.275Z,3.40
2023-03-16T04:56:44.068Z,3.70
2023-03-16T04:59:26.411Z,3.67
2023-03-16T05:02:17.091Z,3.67
2023-03-16T05:04:44.619Z,3.23
2023-03-16T05:07:13.140Z,3.10
2023-03-16T05:09:43.838Z,3.87
2023-03-16T05:12:11.311Z,3.90
2023-03-16T05:14:40.974Z,2.80
2023-03-16T05:17:40.602Z,3.50
2023-03-16T05:20:08.434Z,3.43
2023-03-16T05:22:41.014Z,3.33
2023-03-16T05:25:15.184Z,3.20
2023-03-16T05:27:45.666Z,2.90
2023-03-16T05:30:19.865Z,3.17
2023-03-16T05:32:47.590Z,3.17
2023-03-16T05:35:15.304Z,2.70
2023-03-16T05:37:43.366Z,2.70
2023-03-16T05:40:15.415Z,3.17
2023-03-16T05:42:42.731Z,2.97
2023-03-16T05:45:10.532Z,3.63
2023-03-16T05:47:47.657Z,2.53
2023-03-16T05:50:15.832Z,3.17
2023-03-16T05:52:44.462Z,2.57
2023-03-16T05:55:18.664Z,2.67
2023-03-16T05:57:51.026Z,2.93
2023-03-16T06:00:19.310Z,2.80
2023-03-16T06:03:01.463Z,2.57
2023-03-16T06:05:45.522Z,2.47
2023-03-16T06:08:12.858Z,2.87
2023-03-16T06:10:42.947Z,2.90
2023-03-16T06:13:10.211Z,2.60
2023-03-16T06:15:37.854Z,2.83
2023-03-16T06:18:06.872Z,3.30
2023-03-16T06:20:37.265Z,2.73
2023-03-16T06:23:04.597Z,3.53
2023-03-16T06:25:32.581Z,2.73
2023-03-16T06:27:59.928Z,2.80
2023-03-16T06:30:36.484Z,2.50
2023-03-16T06:33:23.967Z,2.80
2023-03-16T06:36:03.502Z,2.63
2023-03-16T06:38:38.342Z,2.40
2023-03-16T06:41:10.621Z,2.47
2023-03-16T06:43:38.107Z,3.07
2023-03-16T06:46:05.959Z,2.37
2023-03-16T06:48:34.701Z,2.67
2023-03-16T06:51:02.016Z,2.37
2023-03-16T06:53:30.619Z,1.97
2023-03-16T06:55:58.480Z,2.70
2023-03-16T06:58:28.029Z,3.03
2023-03-16T07:00:55.330Z,2.87
2023-03-16T07:03:22.746Z,2.60
2023-03-16T07:06:12.713Z,2.67
2023-03-16T07:09:02.872Z,2.90
2023-03-16T07:11:41.121Z,2.73
2023-03-16T07:14:08.585Z,2.67
2023-03-16T07:16:36.915Z,2.90
2023-03-16T07:19:06.933Z,3.00
2023-03-16T07:21:35.615Z,2.97
2023-03-16T07:24:03.197Z,2.40
2023-03-16T07:26:36.686Z,2.73
2023-03-16T07:29:04.215Z,2.37
2023-03-16T07:31:31.625Z,2.90
2023-03-16T07:34:00.799Z,2.77
2023-03-16T07:36:38.153Z,2.80
2023-03-16T07:39:05.592Z,2.50
2023-03-16T07:41:34.634Z,2.63
2023-03-16T07:44:29.330Z,3.10
2023-03-16T07:46:57.012Z,2.53
2023-03-16T07:49:27.071Z,2.87
2023-03-16T07:51:57.404Z,3.07
2023-03-16T07:54:37.111Z,3.10
2023-03-16T07:57:06.457Z,2.33
2023-03-16T07:59:38.927Z,2.20
2023-03-16T08:02:07.485Z,2.47
2023-03-16T08:04:34.954Z,3.37
2023-03-16T08:07:22.556Z,2.73
2023-03-16T08:10:09.432Z,3.07
2023-03-16T08:12:51.971Z,2.80
2023-03-16T08:15:19.681Z,3.40
2023-03-16T08:17:47.973Z,2.30
2023-03-16T08:20:21.511Z,2.60
2023-03-16T08:22:48.801Z,2.80
2023-03-16T08:25:20.864Z,3.00
2023-03-16T08:27:57.645Z,2.63
2023-03-16T08:30:24.857Z,3.40
2023-03-16T08:33:08.901Z,2.93
2023-03-16T08:35:36.911Z,2.50
2023-03-16T08:38:04.498Z,3.00
2023-03-16T08:40:33.171Z,2.70
2023-03-16T08:43:00.784Z,2.77
2023-03-16T08:45:28.134Z,2.67
2023-03-16T08:47:55.566Z,2.40
2023-03-16T08:50:23.141Z,2.63
2023-03-16T08:52:50.420Z,2.50
2023-03-16T08:55:17.773Z,2.00
2023-03-16T08:57:46.371Z,2.77
2023-03-16T09:00:14.097Z,2.50
2023-03-16T09:02:41.505Z,2.67
2023-03-16T09:05:09.319Z,2.93
2023-03-16T09:07:36.627Z,2.67
2023-03-16T09:10:04.463Z,2.37
2023-03-16T09:12:31.904Z,3.10
2023-03-16T09:15:00.625Z,2.30
2023-03-16T09:17:27.932Z,2.60
2023-03-16T09:20:01.314Z,2.37
2023-03-16T09:22:35.536Z,2.63
2023-03-16T09:25:02.844Z,2.60
2023-03-16T09:27:30.169Z,2.73
2023-03-16T09:29:57.423Z,2.73
2023-03-16T09:32:26.538Z,2.43
2023-03-16T09:34:54.130Z,2.87
2023-03-16T09:37:21.530Z,2.60
2023-03-16T09:39:48.782Z,2.87
2023-03-16T09:42:18.628Z,3.10
2023-03-16T09:44:53.466Z,2.20
2023-03-16T09:47:24.504Z,2.70
2023-03-16T09:49:53.672Z,2.93
2023-03-16T09:52:26.265Z,2.47
2023-03-16T09:54:56.725Z,3.17
2023-03-16T09:57:26.351Z,2.83
2023-03-16T09:59:53.601Z,2.60
2023-03-16T10:02:29.461Z,2.53
2023-03-16T10:05:03.113Z,2.73
2023-03-16T10:07:37.068Z,2.33
2023-03-16T10:10:07.544Z,3.07
2023-03-16T10:12:38.083Z,2.40
2023-03-16T10:15:07.537Z,2.30
2023-03-16T10:17:38.265Z,3.10
2023-03-16T10:20:07.604Z,2.83
2023-03-16T10:22:36.011Z,2.20
2023-03-16T10:25:16.803Z,2.77
2023-03-16T10:27:45.064Z,3.23
2023-03-16T10:30:22.716Z,2.43
2023-03-16T10:32:50.250Z,2.90
2023-03-16T10:35:23.410Z,2.70
2023-03-16T10:37:50.709Z,3.07
2023-03-16T10:40:18.524Z,3.00
2023-03-16T10:42:48.952Z,3.23
2023-03-16T10:45:21.502Z,2.13
2023-03-16T10:47:48.804Z,3.47
2023-03-16T10:50:16.860Z,2.43
2023-03-16T10:52:46.702Z,2.27
2023-03-16T10:55:17.844Z,2.53
2023-03-16T10:57:49.166Z,2.53
2023-03-16T11:00:17.595Z,2.50
2023-03-16T11:02:44.816Z,2.43
2023-03-16T11:05:12.978Z,2.80
2023-03-16T11:07:40.397Z,2.67
2023-03-16T11:10:24.907Z,1.80
2023-03-16T11:12:52.166Z,1.90
2023-03-16T11:15:25.801Z,2.70
2023-03-16T11:17:53.527Z,2.30
2023-03-16T11:20:22.969Z,2.47
2023-03-16T11:22:50.565Z,2.57
2023-03-16T11:25:20.346Z,2.37
2023-03-16T11:27:49.670Z,2.50
2023-03-16T11:30:20.169Z,2.50
2023-03-16T11:32:49.491Z,2.40
2023-03-16T11:35:18.454Z,2.50
2023-03-16T11:37:51.614Z,2.07
2023-03-16T11:40:32.282Z,2.80
2023-03-16T11:43:02.654Z,2.53
2023-03-16T11:45:50.271Z,1.90
2023-03-16T11:48:39.620Z,2.00
2023-03-16T11:51:10.154Z,2.37
2023-03-16T11:53:49.100Z,2.37
2023-03-16T11:56:23.054Z,2.40
2023-03-16T11:58:54.455Z,2.10
2023-03-16T12:01:25.442Z,2.40
2023-03-16T12:06:34.845Z,2.63
2023-03-16T12:09:08.587Z,2.10
2023-03-16T12:11:41.038Z,2.23
2023-03-16T12:14:15.597Z,2.60
2023-03-16T12:16:49.580Z,1.80
2023-03-16T12:19:27.654Z,2.17
2023-03-16T12:22:23.995Z,2.20
2023-03-16T12:25:04.027Z,1.93
2023-03-16T12:27:34.414Z,2.10
2023-03-16T12:30:05.638Z,1.43
2023-03-16T12:32:44.424Z,1.93
2023-03-16T12:35:20.308Z,2.00
2023-03-16T12:37:54.570Z,2.57
2023-03-16T12:40:27.532Z,2.00
2023-03-16T12:43:06.558Z,2.37
2023-03-16T12:45:37.534Z,2.20
2023-03-16T12:48:09.935Z,2.30
2023-03-16T12:50:47.755Z,2.60
2023-03-16T12:53:31.385Z,2.50
2023-03-16T12:56:12.581Z,2.20
2023-03-16T12:58:57.217Z,2.43
2023-03-16T13:01:26.906Z,2.20
2023-03-16T13:03:59.867Z,2.30
2023-03-16T13:06:32.743Z,2.33
2023-03-16T13:09:06.691Z,2.67
2023-03-16T13:11:44.375Z,2.43
2023-03-16T13:14:15.962Z,2.43
2023-03-16T13:16:43.363Z,2.00
2023-03-16T13:19:27.098Z,2.33
2023-03-16T13:22:01.958Z,2.77
2023-03-16T13:27:07.114Z,2.37
2023-03-16T13:29:38.510Z,1.67
2023-03-16T13:32:08.597Z,1.93
2023-03-16T13:35:11.977Z,2.30
2023-03-16T13:38:01.159Z,2.10
2023-03-16T13:40:28.628Z,1.90
2023-03-16T13:42:58.304Z,2.17
2023-03-16T13:45:32.410Z,2.10
2023-03-16T13:48:00.849Z,2.40
2023-03-16T13:50:32.138Z,2.47
2023-03-16T13:55:53.420Z,2.23
2023-03-16T13:58:23.000Z,2.17
2023-03-16T14:00:55.774Z,2.00
2023-03-16T14:03:23.072Z,2.43
2023-03-16T14:05:50.400Z,2.30
2023-03-16T14:08:37.869Z,2.20
2023-03-16T14:11:14.389Z,2.23
2023-03-16T14:13:43.099Z,2.17
2023-03-16T14:16:16.187Z,2.13
2023-03-16T14:18:44.347Z,1.90
2023-03-16T14:21:14.940Z,1.73
2023-03-16T14:23:44.563Z,2.20
2023-03-16T14:26:12.776Z,2.47
2023-03-16T14:28:40.726Z,2.10
2023-03-16T14:31:10.654Z,1.87
2023-03-16T14:33:39.943Z,2.53
2023-03-16T14:36:14.237Z,2.23
2023-03-16T14:38:42.456Z,1.87
2023-03-16T14:41:21.898Z,2.00
2023-03-16T14:44:08.187Z,2.60
2023-03-16T14:46:57.498Z,1.70
2023-03-16T14:49:33.341Z,2.33
2023-03-16T14:52:02.432Z,1.87
2023-03-16T14:54:29.931Z,2.20
2023-03-16T14:57:00.306Z,2.10
2023-03-16T14:59:27.772Z,2.47
2023-03-16T15:01:55.621Z,2.30
2023-03-16T15:04:25.870Z,2.00
2023-03-16T15:06:54.533Z,2.00
2023-03-16T15:09:35.688Z,1.90
2023-03-16T15:12:03.071Z,2.47
2023-03-16T15:14:46.681Z,2.10
2023-03-16T15:17:32.218Z,2.53
2023-03-16T15:19:59.683Z,2.17
2023-03-16T15:22:30.342Z,2.60
2023-03-16T15:24:57.952Z,2.47
2023-03-16T15:27:26.842Z,2.10
2023-03-16T15:29:54.175Z,1.93
2023-03-16T15:34:49.235Z,2.20
2023-03-16T15:37:17.497Z,2.23
2023-03-16T15:39:46.425Z,2.17
2023-03-16T15:42:15.213Z,1.90
2023-03-16T15:44:42.549Z,1.80
2023-03-16T15:47:09.928Z,2.17
2023-03-16T15:50:07.832Z,1.77
2023-03-16T15:52:48.727Z,1.80
2023-03-16T15:55:19.567Z,1.80
2023-03-16T15:57:47.346Z,1.93
2023-03-16T16:00:23.815Z,1.80
2023-03-16T16:02:51.069Z,1.63
2023-03-16T16:05:18.300Z,2.00
2023-03-16T16:07:45.568Z,2.77
2023-03-16T16:10:13.894Z,1.93
2023-03-16T16:12:42.841Z,1.80
2023-03-16T16:15:18.198Z,2.00
2023-03-16T16:17:57.857Z,1.53
2023-03-16T16:20:33.939Z,1.97
2023-03-16T16:23:20.128Z,2.20
2023-03-16T16:26:12.992Z,1.80
2023-03-16T16:28:43.206Z,2.00
2023-03-16T16:31:12.776Z,1.43
2023-03-16T16:33:40.583Z,2.33
2023-03-16T16:36:11.595Z,3.70
2023-03-16T16:38:38.840Z,2.07
2023-03-16T16:41:08.405Z,1.67
2023-03-16T16:43:37.691Z,1.90
2023-03-16T16:46:08.420Z,1.93
2023-03-16T16:48:36.887Z,2.30
2023-03-16T16:51:05.176Z,1.87
2023-03-16T16:53:32.411Z,2.00
2023-03-16T16:55:59.775Z,2.00
2023-03-16T16:58:27.165Z,1.70
2023-03-16T17:00:56.200Z,1.43
2023-03-16T17:03:25.869Z,1.93
2023-03-16T17:05:55.198Z,2.00
2023-03-16T17:08:22.818Z,1.80
2023-03-16T17:10:50.286Z,1.80
2023-03-16T17:13:23.913Z,2.30
2023-03-16T17:15:51.264Z,2.23
2023-03-16T17:18:18.619Z,1.90
2023-03-16T17:20:47.373Z,1.33
2023-03-16T17:23:23.059Z,1.87
2023-03-16T17:25:50.358Z,1.90
2023-03-16T17:28:17.633Z,2.20
2023-03-16T17:30:45.859Z,2.03
2023-03-16T17:33:14.583Z,2.10
2023-03-16T17:35:41.916Z,2.17
2023-03-16T17:38:16.162Z,2.33
2023-03-16T17:40:43.718Z,2.20
2023-03-16T17:43:13.818Z,2.63
2023-03-16T17:45:41.163Z,2.17
2023-03-16T17:48:12.810Z,1.90
2023-03-16T17:50:40.047Z,2.57
2023-03-16T17:53:07.499Z,2.23
2023-03-16T17:55:36.100Z,2.27
2023-03-16T17:58:03.312Z,2.37
2023-03-16T18:00:31.883Z,2.23
2023-03-16T18:03:00.441Z,1.77
2023-03-16T18:05:29.552Z,2.30
2023-03-16T18:07:59.030Z,2.37
2023-03-16T18:10:28.138Z,2.27
2023-03-16T18:12:59.052Z,2.23
2023-03-16T18:15:28.802Z,2.70
2023-03-16T18:17:56.129Z,2.40
2023-03-16T18:20:25.665Z,1.93
2023-03-16T18:22:53.066Z,2.10
2023-03-16T18:25:29.024Z,2.13
2023-03-16T18:27:57.642Z,2.27
2023-03-16T18:30:25.257Z,2.50
2023-03-16T18:32:52.669Z,2.40
2023-03-16T18:35:20.228Z,2.40
2023-03-16T18:37:47.927Z,3.10
2023-03-16T18:40:16.787Z,2.70
2023-03-16T18:42:44.388Z,2.40
2023-03-16T18:45:14.164Z,2.20
2023-03-16T18:47:43.555Z,2.30
2023-03-16T18:50:16.582Z,2.17
2023-03-16T18:52:43.827Z,2.53
2023-03-16T18:55:14.728Z,2.40
2023-03-16T18:57:42.365Z,2.60
2023-03-16T19:00:15.178Z,2.63
2023-03-16T19:02:44.397Z,3.07
2023-03-16T19:05:13.626Z,3.00
2023-03-16T19:07:42.375Z,3.03
2023-03-16T19:10:18.999Z,2.90
2023-03-16T19:12:46.284Z,2.70
2023-03-16T19:15:16.251Z,2.23
2023-03-16T19:17:44.829Z,2.47
2023-03-16T19:20:14.287Z,2.67
2023-03-16T19:22:41.709Z,2.30
2023-03-16T19:25:15.334Z,2.90
2023-03-16T19:27:42.768Z,2.47
2023-03-16T19:30:18.697Z,2.20
2023-03-16T19:32:47.367Z,2.37
2023-03-16T19:35:15.054Z,2.47
2023-03-16T19:37:42.469Z,2.37
2023-03-16T19:40:11.115Z,2.37
2023-03-16T19:42:38.814Z,2.77
2023-03-16T19:45:06.686Z,2.33
2023-03-16T19:47:34.938Z,2.20
2023-03-16T19:50:06.731Z,2.30
2023-03-16T19:52:34.058Z,1.90
2023-03-16T19:55:01.330Z,2.13
2023-03-16T19:57:29.221Z,2.30
2023-03-16T19:59:57.097Z,2.20
2023-03-16T20:02:25.371Z,2.60
2023-03-16T20:04:52.676Z,2.50
2023-03-16T20:07:22.141Z,3.20
2023-03-16T20:09:49.664Z,4.07
2023-03-16T20:12:21.958Z,4.10
2023-03-16T20:14:49.463Z,3.53
2023-03-16T20:17:19.766Z,2.97
2023-03-16T20:19:47.073Z,2.73
2023-03-16T20:22:17.798Z,2.53
2023-03-16T20:24:46.449Z,2.33
2023-03-16T20:27:14.097Z,2.67
2023-03-16T20:29:41.809Z,2.50
2023-03-16T20:32:14.794Z,2.63
2023-03-16T20:34:42.466Z,2.70
2023-03-16T20:37:20.319Z,2.93
2023-03-16T20:39:49.195Z,2.30
2023-03-16T20:42:16.865Z,2.90
2023-03-16T20:44:44.220Z,2.60
2023-03-16T20:47:13.473Z,2.50
2023-03-16T20:49:40.782Z,2.53
2023-03-16T20:52:15.156Z,2.20
2023-03-16T20:54:42.588Z,2.67
2023-03-16T20:57:15.904Z,2.83
2023-03-16T20:59:43.166Z,2.53
2023-03-16T21:02:24.458Z,2.50
2023-03-16T21:04:51.922Z,3.13
2023-03-16T21:07:19.294Z,2.70
2023-03-16T21:09:50.179Z,4.13
2023-03-16T21:12:23.969Z,3.90
2023-03-16T21:14:51.590Z,6.30
2023-03-16T21:17:23.126Z,5.00
2023-03-16T21:19:52.383Z,4.27
2023-03-16T21:22:23.561Z,3.50
2023-03-16T21:24:50.880Z,3.50
2023-03-16T21:27:22.329Z,3.03
2023-03-16T21:29:51.024Z,2.30
2023-03-16T21:32:19.590Z,3.33
2023-03-16T21:34:46.870Z,2.50
2023-03-16T21:37:14.740Z,2.53
2023-03-16T21:39:42.033Z,2.90
2023-03-16T21:42:09.910Z,2.40
2023-03-16T21:44:37.570Z,2.47
2023-03-16T21:47:07.676Z,3.30
2023-03-16T21:49:35.041Z,2.90
2023-03-16T21:52:02.751Z,2.70
2023-03-16T21:54:30.008Z,2.47
2023-03-16T21:56:57.215Z,2.80
2023-03-16T21:59:24.538Z,2.53
2023-03-16T22:02:01.585Z,3.07
2023-03-16T22:04:30.961Z,2.70
2023-03-16T22:06:58.305Z,2.97
2023-03-16T22:09:25.553Z,2.63
2023-03-16T22:11:52.848Z,2.97
2023-03-16T22:14:20.077Z,2.87
2023-03-16T22:16:47.438Z,2.70
2023-03-16T22:19:15.495Z,2.73
2023-03-16T22:21:44.797Z,2.73
2023-03-16T22:24:14.913Z,2.57
2023-03-16T22:26:42.437Z,2.60
2023-03-16T22:29:18.082Z,3.33
2023-03-16T22:31:45.911Z,2.90
2023-03-16T22:34:20.557Z,2.87
2023-03-16T22:36:49.238Z,2.83
2023-03-16T22:39:16.958Z,2.90
2023-03-16T22:41:44.248Z,2.67
2023-03-16T22:44:17.582Z,2.90
2023-03-16T22:46:44.803Z,2.97
2023-03-16T22:49:18.571Z,2.70
2023-03-16T22:51:45.908Z,2.67
2023-03-16T22:54:16.481Z,2.60
2023-03-16T22:56:44.539Z,3.37
2023-03-16T22:59:14.312Z,3.10
2023-03-16T23:01:42.719Z,2.57
2023-03-16T23:04:13.809Z,3.03
2023-03-16T23:06:41.241Z,2.83
2023-03-16T23:09:08.755Z,2.57
2023-03-16T23:11:38.690Z,2.80
2023-03-16T23:14:10.842Z,3.03
2023-03-16T23:16:38.350Z,3.07
2023-03-16T23:19:24.018Z,3.13
2023-03-16T23:21:52.305Z,2.87
2023-03-16T23:24:19.543Z,2.70
2023-03-16T23:26:48.573Z,2.87
2023-03-16T23:29:15.830Z,2.80
2023-03-16T23:31:43.194Z,3.40
2023-03-16T23:34:11.291Z,2.77
2023-03-16T23:36:39.317Z,3.20
2023-03-16T23:39:06.716Z,3.00
2023-03-16T23:41:34.541Z,3.00
2023-03-16T23:44:04.246Z,2.77
2023-03-16T23:46:31.534Z,2.90
2023-03-16T23:49:00.416Z,3.37
2023-03-16T23:51:28.761Z,3.40
2023-03-16T23:53:56.570Z,3.00
2023-03-16T23:56:24.262Z,3.53
2023-03-16T23:58:51.668Z,3.30
